Time;durP1;ratioP1;P1;durP2;ratioP2;P2;SDS_P1;SDS_P2;PMS_P1;PMS_P2;Temp;Humidity;BMP_temperature;BMP_pressure;BME280_temperature;BME280_humidity;BME280_pressure;Samples;Min_cycle;Max_cycle;Signal;HPM_P1;HPM_P2
2022/10/24 00:01:39;;;;;;;2.97;0.98;;;;;;;;;;5034744;28;20029;-81
2022/10/24 00:04:05;;;;;;;6.20;1.15;;;;;;;;;;5029219;28;20077;-80
2022/10/24 00:06:30;;;;;;;4.13;1.23;;;;;;;;;;5033245;28;20029;-81
2022/10/24 00:08:55;;;;;;;13.45;1.33;;;;;;;;;;5030437;28;20388;-83
2022/10/24 00:11:25;;;;;;;3.72;1.25;;;;;;;;;;5038519;28;20258;-82
2022/10/24 00:13:51;;;;;;;4.15;1.08;;;;;;;;;;5032319;28;20025;-81
2022/10/24 00:16:17;;;;;;;2.58;1.20;;;;;;;;;;5032231;28;20072;-81
2022/10/24 00:18:42;;;;;;;1.42;0.77;;;;;;;;;;5042965;28;20117;-82
2022/10/24 00:21:08;;;;;;;2.17;1.05;;;;;;;;;;5039529;28;20025;-80
2022/10/24 00:23:34;;;;;;;3.47;1.10;;;;;;;;;;5035092;28;20025;-81
2022/10/24 00:26:00;;;;;;;4.60;1.30;;;;;;;;;;5038594;28;20053;-80
2022/10/24 00:28:27;;;;;;;3.67;1.02;;;;;;;;;;5039795;28;20029;-81
2022/10/24 00:30:53;;;;;;;1.70;1.02;;;;;;;;;;5045502;28;20429;-80
2022/10/24 00:33:18;;;;;;;2.88;1.10;;;;;;;;;;5037406;28;20033;-82
2022/10/24 00:35:44;;;;;;;5.50;0.90;;;;;;;;;;5041463;28;20538;-82
2022/10/24 00:38:09;;;;;;;5.25;0.90;;;;;;;;;;5036339;28;20966;-81
2022/10/24 00:40:35;;;;;;;5.68;1.00;;;;;;;;;;5030391;28;20112;-81
2022/10/24 00:43:00;;;;;;;3.42;0.90;;;;;;;;;;5033792;28;20029;-82
2022/10/24 00:45:53;;;;;;;1.77;0.88;;;;;;;;;;5037867;28;20089;-80
2022/10/24 00:48:40;;;;;;;1.52;0.75;;;;;;;;;;5037589;28;20055;-82
2022/10/24 00:51:29;;;;;;;3.22;1.50;;;;;;;;;;5035692;28;20056;-81
2022/10/24 00:54:07;;;;;;;2.88;0.80;;;;;;;;;;5038913;28;20029;-82
2022/10/24 00:57:00;;;;;;;5.47;1.48;;;;;;;;;;5040826;28;20033;-82
2022/10/24 00:59:27;;;;;;;5.63;1.55;;;;;;;;;;5041305;28;20125;-82
2022/10/24 01:01:53;;;;;;;2.25;1.02;;;;;;;;;;5047231;28;20033;-81
2022/10/24 01:04:18;;;;;;;6.43;1.23;;;;;;;;;;5048946;28;20040;-84
2022/10/24 01:06:58;;;;;;;6.15;1.45;;;;;;;;;;5056446;28;20032;-82
2022/10/24 01:09:30;;;;;;;5.40;1.40;;;;;;;;;;5050106;28;21213;-82
2022/10/24 01:12:16;;;;;;;4.78;0.93;;;;;;;;;;5044067;28;20104;-83
2022/10/24 01:15:00;;;;;;;3.83;1.63;;;;;;;;;;5053067;28;20043;-80
2022/10/24 01:17:25;;;;;;;2.83;0.90;;;;;;;;;;5052899;28;20112;-81
2022/10/24 01:20:02;;;;;;;4.85;1.38;;;;;;;;;;5052886;28;20061;-84
2022/10/24 01:22:35;;;;;;;6.85;1.55;;;;;;;;;;5044690;28;20041;-83
2022/10/24 01:25:31;;;;;;;8.13;1.65;;;;;;;;;;5054654;28;20025;-84
2022/10/24 01:28:08;;;;;;;5.78;1.23;;;;;;;;;;5052084;28;20067;-83
2022/10/24 01:30:42;;;;;;;10.77;1.90;;;;;;;;;;5051642;28;20060;-82
2022/10/24 01:33:21;;;;;;;6.25;1.15;;;;;;;;;;5050394;28;20021;-85
2022/10/24 01:36:08;;;;;;;4.55;1.10;;;;;;;;;;5048487;28;20112;-84
2022/10/24 01:38:56;;;;;;;2.38;1.02;;;;;;;;;;5050552;28;20089;-84
2022/10/24 01:41:25;;;;;;;6.88;1.55;;;;;;;;;;5053641;28;20044;-85
2022/10/24 01:44:10;;;;;;;8.80;1.58;;;;;;;;;;5052819;28;20475;-84
2022/10/24 01:46:43;;;;;;;10.93;1.67;;;;;;;;;;5052427;28;20072;-84
2022/10/24 01:49:18;;;;;;;3.15;1.30;;;;;;;;;;5054025;28;20391;-85
2022/10/24 01:51:48;;;;;;;4.47;1.38;;;;;;;;;;5059777;28;20033;-84
2022/10/24 01:54:14;;;;;;;4.22;1.30;;;;;;;;;;5057119;28;20085;-81
2022/10/24 01:56:39;;;;;;;4.68;1.25;;;;;;;;;;5063801;28;20036;-83
2022/10/24 01:59:29;;;;;;;9.45;1.45;;;;;;;;;;5060971;28;20056;-84
2022/10/24 02:02:07;;;;;;;5.55;1.20;;;;;;;;;;5061214;28;20049;-83
2022/10/24 02:04:37;;;;;;;8.65;1.83;;;;;;;;;;5058386;28;20467;-82
2022/10/24 02:07:07;;;;;;;6.60;1.20;;;;;;;;;;5054078;28;20105;-82
2022/10/24 02:09:35;;;;;;;4.65;1.30;;;;;;;;;;5058163;28;20728;-81
2022/10/24 02:12:01;;;;;;;8.45;1.70;;;;;;;;;;5055353;28;20024;-81
2022/10/24 02:14:32;;;;;;;3.72;1.08;;;;;;;;;;5062718;28;20039;-81
2022/10/24 02:16:59;;;;;;;2.47;1.23;;;;;;;;;;5053519;28;20177;-83
2022/10/24 02:19:25;;;;;;;3.75;1.50;;;;;;;;;;5054273;28;20305;-82
2022/10/24 02:22:46;;;;;;;4.20;1.40;;;;;;;;;;5051829;28;20017;-82
2022/10/24 02:25:26;;;;;;;2.55;1.08;;;;;;;;;;4995498;28;20134;-82
2022/10/24 02:27:58;;;;;;;3.67;1.88;;;;;;;;;;4998836;28;20038;-83
2022/10/24 02:30:24;;;;;;;5.00;1.30;;;;;;;;;;5037379;28;20028;-82
2022/10/24 02:32:56;;;;;;;4.18;1.27;;;;;;;;;;5050611;28;20036;-83
2022/10/24 02:35:31;;;;;;;4.53;1.50;;;;;;;;;;5057573;28;20024;-83
2022/10/24 02:38:03;;;;;;;1.90;1.15;;;;;;;;;;5049237;28;20040;-85
2022/10/24 02:40:29;;;;;;;;;;;;;;;;;;5049858;28;20021;-79
2022/10/24 02:42:57;;;;;;;5.40;1.70;;;;;;;;;;5052077;28;19975;-85
2022/10/24 02:45:23;;;;;;;6.10;1.63;;;;;;;;;;5055880;28;20115;-83
2022/10/24 02:47:54;;;;;;;7.10;1.50;;;;;;;;;;5049626;28;20028;-81
2022/10/24 02:50:20;;;;;;;6.63;1.75;;;;;;;;;;5048954;28;20047;-82
2022/10/24 02:52:45;;;;;;;6.93;1.27;;;;;;;;;;5051203;28;20060;-83
2022/10/24 02:55:11;;;;;;;3.83;1.30;;;;;;;;;;5050201;28;20029;-82
2022/10/24 02:57:37;;;;;;;10.35;1.40;;;;;;;;;;5050949;28;20044;-83
2022/10/24 03:00:04;;;;;;;5.80;1.25;;;;;;;;;;5049446;28;20029;-83
2022/10/24 03:02:29;;;;;;;10.35;2.15;;;;;;;;;;5051809;28;20022;-83
2022/10/24 03:04:54;;;;;;;6.88;1.35;;;;;;;;;;5050030;28;20039;-86
2022/10/24 03:07:20;;;;;;;8.88;1.98;;;;;;;;;;5050963;28;20033;-83
2022/10/24 03:09:45;;;;;;;5.43;1.60;;;;;;;;;;5051225;28;20032;-84
2022/10/24 03:12:16;;;;;;;7.45;1.75;;;;;;;;;;5049987;28;20033;-82
2022/10/24 03:14:43;;;;;;;8.95;1.77;;;;;;;;;;5052042;28;20025;-81
2022/10/24 03:17:09;;;;;;;7.82;1.40;;;;;;;;;;5048179;28;20616;-82
2022/10/24 03:19:34;;;;;;;5.78;1.92;;;;;;;;;;5046523;28;20025;-80
2022/10/24 03:21:59;;;;;;;10.05;1.52;;;;;;;;;;5038619;28;20434;-82
2022/10/24 03:24:25;;;;;;;10.55;1.67;;;;;;;;;;5043344;28;20077;-82
2022/10/24 03:26:51;;;;;;;8.18;1.40;;;;;;;;;;5046670;28;20020;-81
2022/10/24 03:29:17;;;;;;;4.32;1.77;;;;;;;;;;5046984;28;20028;-82
2022/10/24 03:31:42;;;;;;;9.93;1.63;;;;;;;;;;5051801;28;20380;-81
2022/10/24 03:34:08;;;;;;;4.18;1.45;;;;;;;;;;5052850;28;20074;-83
2022/10/24 03:36:33;;;;;;;10.27;1.42;;;;;;;;;;5051925;28;20067;-83
2022/10/24 03:39:01;;;;;;;8.68;1.77;;;;;;;;;;5051199;28;20039;-81
2022/10/24 03:41:26;;;;;;;8.18;1.58;;;;;;;;;;5055122;28;20048;-82
2022/10/24 03:43:52;;;;;;;6.88;1.67;;;;;;;;;;5054029;28;20029;-83
2022/10/24 03:46:17;;;;;;;9.75;2.13;;;;;;;;;;5053163;28;20029;-83
2022/10/24 03:48:42;;;;;;;9.32;2.08;;;;;;;;;;5046878;28;20033;-82
2022/10/24 03:51:08;;;;;;;7.68;1.60;;;;;;;;;;5050200;28;20937;-81
2022/10/24 03:53:33;;;;;;;10.43;2.50;;;;;;;;;;5049246;28;20039;-82
2022/10/24 03:55:59;;;;;;;8.00;1.90;;;;;;;;;;5051990;28;20032;-83
2022/10/24 03:58:24;;;;;;;5.75;2.25;;;;;;;;;;5050734;28;20059;-83
2022/10/24 04:00:50;;;;;;;10.75;1.73;;;;;;;;;;5045437;28;20099;-81
2022/10/24 04:03:15;;;;;;;8.10;2.03;;;;;;;;;;5053030;28;20021;-82
2022/10/24 04:05:40;;;;;;;11.20;1.80;;;;;;;;;;5059236;28;20055;-79
2022/10/24 04:08:06;;;;;;;7.25;2.03;;;;;;;;;;5063192;28;20052;-80
2022/10/24 04:10:31;;;;;;;6.03;1.88;;;;;;;;;;5062938;28;20040;-83
2022/10/24 04:12:57;;;;;;;9.00;2.28;;;;;;;;;;5058460;28;20033;-83
2022/10/24 04:15:22;;;;;;;9.15;2.25;;;;;;;;;;5057987;28;20032;-83
2022/10/24 04:17:47;;;;;;;6.45;1.52;;;;;;;;;;5054565;28;20029;-83
2022/10/24 04:20:18;;;;;;;9.93;2.05;;;;;;;;;;5049751;28;20415;-82
2022/10/24 04:22:43;;;;;;;12.82;2.17;;;;;;;;;;5051796;28;20090;-83
2022/10/24 04:25:08;;;;;;;6.05;1.75;;;;;;;;;;5047026;28;20033;-84
2022/10/24 04:27:35;;;;;;;8.50;1.90;;;;;;;;;;5054883;28;20020;-84
2022/10/24 04:30:01;;;;;;;7.70;2.35;;;;;;;;;;5051168;28;20022;-80
2022/10/24 04:32:26;;;;;;;9.93;2.17;;;;;;;;;;5052396;28;20032;-84
2022/10/24 04:34:51;;;;;;;5.57;1.55;;;;;;;;;;5057775;28;20406;-82
2022/10/24 04:37:17;;;;;;;5.47;1.70;;;;;;;;;;5050070;28;20030;-84
2022/10/24 04:39:42;;;;;;;8.27;2.15;;;;;;;;;;5053590;28;20113;-81
2022/10/24 04:42:07;;;;;;;8.90;1.75;;;;;;;;;;5054611;28;20049;-84
2022/10/24 04:44:33;;;;;;;11.00;2.45;;;;;;;;;;5051284;28;20471;-82
2022/10/24 04:46:58;;;;;;;5.07;1.92;;;;;;;;;;5053105;28;20040;-83
2022/10/24 04:49:23;;;;;;;7.90;1.67;;;;;;;;;;5053589;28;20034;-83
2022/10/24 04:51:49;;;;;;;8.30;1.80;;;;;;;;;;5057681;28;20037;-83
2022/10/24 04:54:14;;;;;;;6.70;2.63;;;;;;;;;;5057860;28;20055;-85
2022/10/24 04:56:39;;;;;;;5.25;1.75;;;;;;;;;;5051820;28;20056;-82
2022/10/24 04:59:08;;;;;;;5.75;1.92;;;;;;;;;;5057923;28;20065;-82
2022/10/24 05:01:33;;;;;;;7.30;1.80;;;;;;;;;;5053706;28;20017;-82
2022/10/24 05:03:59;;;;;;;13.52;3.53;;;;;;;;;;5052890;28;20056;-84
2022/10/24 05:06:24;;;;;;;11.77;1.92;;;;;;;;;;5057470;28;20033;-80
2022/10/24 05:08:49;;;;;;;8.45;1.77;;;;;;;;;;5052173;28;20030;-84
2022/10/24 05:11:15;;;;;;;7.45;1.73;;;;;;;;;;5050806;28;20060;-85
2022/10/24 05:13:41;;;;;;;8.65;1.60;;;;;;;;;;5055058;28;20021;-83
2022/10/24 05:16:06;;;;;;;7.18;1.90;;;;;;;;;;5053344;28;20028;-83
2022/10/24 05:18:32;;;;;;;3.78;1.65;;;;;;;;;;5056410;28;20108;-82
2022/10/24 05:21:11;;;;;;;9.68;2.15;;;;;;;;;;5051271;28;20021;-87
2022/10/24 05:23:36;;;;;;;9.35;2.03;;;;;;;;;;5052817;28;20032;-87
2022/10/24 05:26:02;;;;;;;5.68;1.70;;;;;;;;;;5049207;28;20074;-88
2022/10/24 05:28:28;;;;;;;6.57;2.17;;;;;;;;;;5048366;28;20028;-87
2022/10/24 05:30:53;;;;;;;8.48;1.75;;;;;;;;;;5053751;28;20029;-87
2022/10/24 05:33:19;;;;;;;4.72;1.50;;;;;;;;;;5046925;28;20035;-87
2022/10/24 05:35:44;;;;;;;3.97;1.38;;;;;;;;;;5059916;28;20067;-88
2022/10/24 05:38:09;;;;;;;7.75;1.60;;;;;;;;;;5068492;28;20056;-85
2022/10/24 05:40:35;;;;;;;10.57;1.85;;;;;;;;;;5071089;28;20064;-85
2022/10/24 05:43:00;;;;;;;4.68;1.60;;;;;;;;;;5065205;28;20076;-87
2022/10/24 05:45:26;;;;;;;8.68;1.88;;;;;;;;;;5065302;28;20032;-86
2022/10/24 05:47:51;;;;;;;8.27;1.90;;;;;;;;;;5068187;28;20025;-86
2022/10/24 05:50:17;;;;;;;12.73;1.98;;;;;;;;;;5067992;28;20075;-81
2022/10/24 05:52:42;;;;;;;7.43;1.75;;;;;;;;;;5069836;28;20013;-82
2022/10/24 05:55:09;;;;;;;7.28;2.13;;;;;;;;;;5060716;28;20097;-83
2022/10/24 05:57:37;;;;;;;5.38;2.13;;;;;;;;;;5065136;28;20006;-82
2022/10/24 06:00:05;;;;;;;9.57;2.08;;;;;;;;;;5068183;28;20033;-81
2022/10/24 06:02:31;;;;;;;7.20;2.08;;;;;;;;;;5059213;28;21477;-82
2022/10/24 06:04:57;;;;;;;7.90;1.98;;;;;;;;;;5064180;28;20041;-82
2022/10/24 06:07:23;;;;;;;7.75;2.05;;;;;;;;;;5063951;28;20033;-84
2022/10/24 06:09:50;;;;;;;5.40;1.65;;;;;;;;;;5056250;28;20463;-85
2022/10/24 06:12:15;;;;;;;4.13;1.75;;;;;;;;;;5052325;28;20124;-85
2022/10/24 06:14:40;;;;;;;6.15;1.80;;;;;;;;;;5050586;28;20056;-84
2022/10/24 06:17:08;;;;;;;5.10;1.50;;;;;;;;;;5048532;28;20033;-85
2022/10/24 06:19:35;;;;;;;11.07;2.08;;;;;;;;;;5051229;28;20479;-83
2022/10/24 06:22:01;;;;;;;5.97;2.03;;;;;;;;;;5057043;28;20047;-84
2022/10/24 06:24:26;;;;;;;7.95;1.65;;;;;;;;;;5045575;28;20025;-84
2022/10/24 06:26:52;;;;;;;7.47;1.92;;;;;;;;;;5050672;28;20035;-84
2022/10/24 06:29:17;;;;;;;12.57;2.10;;;;;;;;;;5044057;28;20086;-84
2022/10/24 06:31:42;;;;;;;12.25;2.25;;;;;;;;;;5052132;28;20479;-83
2022/10/24 06:34:08;;;;;;;6.22;1.63;;;;;;;;;;5038225;28;20032;-84
2022/10/24 06:36:35;;;;;;;5.88;1.90;;;;;;;;;;5039221;28;20033;-85
2022/10/24 06:39:01;;;;;;;5.70;2.00;;;;;;;;;;5040192;28;20038;-85
2022/10/24 06:41:26;;;;;;;9.32;1.50;;;;;;;;;;5048328;28;20527;-84
2022/10/24 06:43:52;;;;;;;7.05;2.55;;;;;;;;;;5050556;28;20056;-85
2022/10/24 06:46:22;;;;;;;4.20;1.38;;;;;;;;;;5054967;28;20029;-84
2022/10/24 06:48:54;;;;;;;7.60;1.60;;;;;;;;;;5058966;28;20037;-84
2022/10/24 06:51:19;;;;;;;;;;;;;;;;;;5058146;28;20029;-85
2022/10/24 06:53:44;;;;;;;5.05;2.38;;;;;;;;;;5061497;28;19916;-84
2022/10/24 06:56:11;;;;;;;5.38;1.40;;;;;;;;;;5046192;28;20124;-85
2022/10/24 06:58:37;;;;;;;5.10;1.73;;;;;;;;;;5041377;28;20025;-85
2022/10/24 07:01:08;;;;;;;4.43;1.88;;;;;;;;;;5051924;28;20502;-84
2022/10/24 07:03:33;;;;;;;4.70;1.60;;;;;;;;;;5056295;28;20075;-83
2022/10/24 07:06:05;;;;;;;7.57;1.90;;;;;;;;;;5057791;28;20028;-83
2022/10/24 07:08:30;;;;;;;6.55;1.85;;;;;;;;;;5058246;28;20020;-84
2022/10/24 07:10:55;;;;;;;11.68;2.33;;;;;;;;;;5055683;28;20037;-84
2022/10/24 07:13:21;;;;;;;6.25;2.03;;;;;;;;;;5056549;28;20483;-84
2022/10/24 07:15:46;;;;;;;7.30;1.60;;;;;;;;;;5044884;28;20029;-84
2022/10/24 07:18:15;;;;;;;9.73;2.03;;;;;;;;;;5050733;28;20039;-86
2022/10/24 07:20:40;;;;;;;9.80;2.22;;;;;;;;;;5048150;28;20494;-84
2022/10/24 07:23:06;;;;;;;10.10;1.88;;;;;;;;;;5056210;28;20036;-86
2022/10/24 07:25:31;;;;;;;6.70;2.05;;;;;;;;;;5056079;28;20457;-85
2022/10/24 07:27:57;;;;;;;5.00;1.98;;;;;;;;;;5056363;28;20021;-84
2022/10/24 07:30:22;;;;;;;8.25;1.85;;;;;;;;;;5051689;28;20053;-86
2022/10/24 07:32:47;;;;;;;4.35;1.75;;;;;;;;;;5046401;28;20395;-84
2022/10/24 07:35:13;;;;;;;7.10;1.80;;;;;;;;;;5037288;28;20468;-85
2022/10/24 07:37:38;;;;;;;6.78;3.00;;;;;;;;;;5037377;28;20106;-87
2022/10/24 07:40:04;;;;;;;7.00;2.53;;;;;;;;;;5037378;28;20379;-85
2022/10/24 07:42:30;;;;;;;3.95;1.60;;;;;;;;;;5038557;28;20037;-84
2022/10/24 07:44:55;;;;;;;5.55;1.70;;;;;;;;;;5050099;28;20036;-86
2022/10/24 07:47:20;;;;;;;4.80;2.05;;;;;;;;;;5051921;28;20035;-84
2022/10/24 07:49:46;;;;;;;12.52;1.48;;;;;;;;;;5038337;28;20167;-83
2022/10/24 07:52:11;;;;;;;5.35;2.05;;;;;;;;;;5036945;28;20029;-86
2022/10/24 07:54:36;;;;;;;3.90;1.33;;;;;;;;;;5044037;28;20021;-85
2022/10/24 07:57:02;;;;;;;7.88;2.00;;;;;;;;;;5039045;28;20095;-86
2022/10/24 07:59:28;;;;;;;9.30;1.88;;;;;;;;;;5038866;28;20032;-87
2022/10/24 08:01:53;;;;;;;5.25;2.05;;;;;;;;;;5036631;28;20021;-88
2022/10/24 08:04:18;;;;;;;4.03;1.75;;;;;;;;;;5040341;28;20071;-85
2022/10/24 08:06:44;;;;;;;5.72;2.28;;;;;;;;;;5057454;28;20032;-84
2022/10/24 08:09:09;;;;;;;4.88;1.90;;;;;;;;;;5055680;28;20028;-86
2022/10/24 08:11:35;;;;;;;8.30;1.95;;;;;;;;;;5061569;28;20029;-84
2022/10/24 08:14:03;;;;;;;5.15;2.15;;;;;;;;;;5062015;28;20025;-85
2022/10/24 08:16:29;;;;;;;5.78;1.90;;;;;;;;;;5053834;28;20021;-86
2022/10/24 08:18:56;;;;;;;4.00;1.80;;;;;;;;;;5060649;28;20027;-86
2022/10/24 08:21:22;;;;;;;13.40;1.75;;;;;;;;;;5061925;28;20478;-86
2022/10/24 08:23:51;;;;;;;7.65;2.08;;;;;;;;;;5064137;28;20031;-87
2022/10/24 08:26:20;;;;;;;6.35;2.03;;;;;;;;;;5063518;28;20079;-85
2022/10/24 08:28:46;;;;;;;4.68;1.63;;;;;;;;;;5064242;28;20028;-85
2022/10/24 08:31:14;;;;;;;6.30;2.00;;;;;;;;;;5064078;28;20028;-87
2022/10/24 08:33:40;;;;;;;6.15;1.60;;;;;;;;;;5051401;28;20037;-87
2022/10/24 08:36:18;;;;;;;6.25;1.90;;;;;;;;;;5060009;28;20024;-88
2022/10/24 08:38:43;;;;;;;9.80;2.10;;;;;;;;;;5046621;28;20064;-87
2022/10/24 08:41:34;;;;;;;5.28;2.63;;;;;;;;;;5045294;28;20013;-85
2022/10/24 08:44:02;;;;;;;4.18;1.45;;;;;;;;;;5074019;28;20129;-85
2022/10/24 08:47:05;;;;;;;3.75;1.77;;;;;;;;;;5070786;28;20024;-85
2022/10/24 08:49:39;;;;;;;3.20;1.73;;;;;;;;;;5050350;28;20029;-87
2022/10/24 08:52:31;;;;;;;8.25;2.25;;;;;;;;;;5061079;28;20048;-87
2022/10/24 08:55:10;;;;;;;2.25;1.45;;;;;;;;;;5059555;28;20099;-87
2022/10/24 08:57:37;;;;;;;12.50;2.10;;;;;;;;;;5046946;28;20032;-87
2022/10/24 09:00:18;;;;;;;4.95;1.95;;;;;;;;;;5047908;28;20029;-86
2022/10/24 09:02:49;;;;;;;15.35;2.00;;;;;;;;;;5065351;28;20039;-87
2022/10/24 09:05:15;;;;;;;5.80;1.70;;;;;;;;;;5056705;28;20060;-86
2022/10/24 09:07:46;;;;;;;3.45;1.58;;;;;;;;;;5055068;28;20566;-87
2022/10/24 09:10:18;;;;;;;5.10;1.60;;;;;;;;;;5046394;28;20069;-85
2022/10/24 09:12:43;;;;;;;7.72;1.52;;;;;;;;;;5045686;28;20034;-86
2022/10/24 09:15:34;;;;;;;1.98;1.55;;;;;;;;;;5049710;28;20466;-85
2022/10/24 09:18:00;;;;;;;5.97;1.52;;;;;;;;;;5050680;28;20037;-86
2022/10/24 09:20:31;;;;;;;5.40;2.47;;;;;;;;;;5046157;28;20029;-86
2022/10/24 09:23:00;;;;;;;2.35;1.70;;;;;;;;;;5043424;28;20044;-84
2022/10/24 09:25:30;;;;;;;3.83;1.58;;;;;;;;;;5042805;28;20036;-86
2022/10/24 09:27:57;;;;;;;3.90;1.10;;;;;;;;;;5043970;28;20053;-85
2022/10/24 09:30:26;;;;;;;2.85;1.42;;;;;;;;;;5048047;28;20039;-85
2022/10/24 09:32:53;;;;;;;4.05;1.60;;;;;;;;;;5048146;28;20022;-84
2022/10/24 09:35:29;;;;;;;1.55;1.20;;;;;;;;;;5057322;28;20467;-85
2022/10/24 09:37:56;;;;;;;4.70;1.80;;;;;;;;;;5059649;28;20101;-85
2022/10/24 09:40:23;;;;;;;8.75;1.83;;;;;;;;;;5041731;28;20026;-85
2022/10/24 09:42:56;;;;;;;3.85;1.65;;;;;;;;;;5040608;28;20029;-85
2022/10/24 09:45:30;;;;;;;5.15;1.45;;;;;;;;;;5051778;28;20147;-85
2022/10/24 09:47:59;;;;;;;2.95;1.33;;;;;;;;;;5051597;28;20029;-82
2022/10/24 09:50:26;;;;;;;2.83;1.45;;;;;;;;;;5060071;28;20017;-85
2022/10/24 09:52:55;;;;;;;3.72;1.40;;;;;;;;;;5060926;28;20029;-84
2022/10/24 09:55:24;;;;;;;5.95;1.50;;;;;;;;;;5061305;28;20024;-83
2022/10/24 09:57:56;;;;;;;5.93;2.35;;;;;;;;;;5056886;28;20536;-85
2022/10/24 10:00:27;;;;;;;;;;;;;;;;;;5066816;28;20110;-84
2022/10/24 10:02:56;;;;;;;5.90;1.80;;;;;;;;;;5059400;28;19946;-85
2022/10/24 10:05:22;;;;;;;4.15;1.67;;;;;;;;;;5064288;28;20042;-84
2022/10/24 10:07:49;;;;;;;1.73;1.20;;;;;;;;;;5059609;28;20047;-85
2022/10/24 10:10:17;;;;;;;7.45;1.50;;;;;;;;;;5057073;28;20020;-84
2022/10/24 10:12:45;;;;;;;4.00;1.73;;;;;;;;;;5058842;28;20107;-83
2022/10/24 10:15:35;;;;;;;4.15;1.67;;;;;;;;;;5058536;28;20037;-85
2022/10/24 10:18:19;;;;;;;2.40;1.30;;;;;;;;;;5047377;28;20022;-85
2022/10/24 10:20:55;;;;;;;4.97;1.40;;;;;;;;;;5050973;28;20017;-85
2022/10/24 10:23:32;;;;;;;5.95;1.70;;;;;;;;;;5059750;28;20024;-84
2022/10/24 10:26:16;;;;;;;6.20;1.80;;;;;;;;;;5058600;28;20029;-84
2022/10/24 10:29:03;;;;;;;3.95;1.58;;;;;;;;;;5053550;28;20028;-81
2022/10/24 10:31:42;;;;;;;5.40;1.88;;;;;;;;;;5060545;28;20029;-82
2022/10/24 10:34:35;;;;;;;4.20;2.08;;;;;;;;;;5054871;28;21169;-83
2022/10/24 10:37:06;;;;;;;6.30;1.60;;;;;;;;;;5060504;28;20025;-82
2022/10/24 10:39:42;;;;;;;10.27;1.35;;;;;;;;;;5055151;28;20480;-82
2022/10/24 10:42:16;;;;;;;7.22;1.52;;;;;;;;;;5048701;28;20032;-83
2022/10/24 10:45:09;;;;;;;4.90;1.70;;;;;;;;;;5058682;28;20032;-84
2022/10/24 10:47:46;;;;;;;7.00;1.60;;;;;;;;;;5040973;28;20025;-85
2022/10/24 10:50:25;;;;;;;4.35;1.13;;;;;;;;;;5039411;28;20032;-83
2022/10/24 10:52:53;;;;;;;3.20;1.48;;;;;;;;;;5044450;28;20024;-84
2022/10/24 10:55:19;;;;;;;6.38;1.50;;;;;;;;;;5059562;28;20028;-84
2022/10/24 10:57:53;;;;;;;4.45;1.52;;;;;;;;;;5058755;28;20029;-84
2022/10/24 11:00:33;;;;;;;3.58;1.60;;;;;;;;;;5059574;28;20125;-84
2022/10/24 11:03:04;;;;;;;3.33;1.15;;;;;;;;;;5062224;28;20031;-84
2022/10/24 11:05:45;;;;;;;3.30;1.40;;;;;;;;;;5050686;28;20020;-82
2022/10/24 11:08:16;;;;;;;1.00;0.90;;;;;;;;;;5048022;28;20044;-83
2022/10/24 11:10:51;;;;;;;3.40;1.00;;;;;;;;;;5049689;28;20018;-84
2022/10/24 11:13:25;;;;;;;8.93;1.33;;;;;;;;;;5045984;28;20032;-83
2022/10/24 11:15:55;;;;;;;3.15;1.13;;;;;;;;;;5053751;28;20025;-82
2022/10/24 11:18:26;;;;;;;4.15;1.58;;;;;;;;;;5049276;28;20031;-82
2022/10/24 11:20:58;;;;;;;5.75;1.60;;;;;;;;;;5050126;28;20018;-84
2022/10/24 11:23:32;;;;;;;2.92;1.05;;;;;;;;;;5052516;28;20115;-83
2022/10/24 11:26:04;;;;;;;1.80;1.20;;;;;;;;;;5054873;28;20077;-83
2022/10/24 11:28:43;;;;;;;4.50;1.30;;;;;;;;;;5055704;28;20025;-83
2022/10/24 11:31:11;;;;;;;1.60;1.00;;;;;;;;;;5056068;28;20079;-83
2022/10/24 11:33:58;;;;;;;2.25;0.90;;;;;;;;;;5055447;28;20051;-83
2022/10/24 11:39:43;;;;;;;4.28;1.27;;;;;;;;;;5049917;28;20031;-82
2022/10/24 11:42:20;;;;;;;1.27;0.90;;;;;;;;;;5049861;28;20029;-83
2022/10/24 11:44:57;;;;;;;3.53;0.98;;;;;;;;;;5049327;28;20047;-82
2022/10/24 11:47:25;;;;;;;3.67;1.00;;;;;;;;;;5053316;28;20052;-81
2022/10/24 11:50:02;;;;;;;4.00;1.20;;;;;;;;;;5053875;28;20024;-82
2022/10/24 11:52:31;;;;;;;3.67;1.05;;;;;;;;;;5051354;28;20500;-81
2022/10/24 11:55:25;;;;;;;1.38;0.80;;;;;;;;;;5050699;28;21471;-85
2022/10/24 11:57:56;;;;;;;2.90;1.23;;;;;;;;;;5051851;28;20033;-83
2022/10/24 12:00:28;;;;;;;2.88;1.10;;;;;;;;;;5060892;28;20025;-83
2022/10/24 12:03:26;;;;;;;3.63;1.10;;;;;;;;;;5064135;28;20472;-82
2022/10/24 12:05:57;;;;;;;10.40;2.63;;;;;;;;;;5060887;28;20032;-83
2022/10/24 12:08:45;;;;;;;3.40;1.30;;;;;;;;;;5046829;28;20426;-86
2022/10/24 12:11:24;;;;;;;3.55;1.10;;;;;;;;;;5027004;28;20037;-85
2022/10/24 12:14:08;;;;;;;1.48;0.85;;;;;;;;;;5039337;28;20047;-85
2022/10/24 12:17:00;;;;;;;6.22;1.40;;;;;;;;;;5054850;28;20040;-84
2022/10/24 12:19:27;;;;;;;2.65;1.17;;;;;;;;;;5044191;28;20115;-84
2022/10/24 12:21:56;;;;;;;5.35;1.05;;;;;;;;;;5059260;28;20020;-84
2022/10/24 12:24:34;;;;;;;4.03;1.48;;;;;;;;;;5055001;28;20018;-84
2022/10/24 12:27:03;;;;;;;3.35;1.63;;;;;;;;;;5045286;28;20037;-83
2022/10/24 12:29:32;;;;;;;1.58;1.13;;;;;;;;;;5058725;28;21236;-84
2022/10/24 12:31:59;;;;;;;5.22;1.15;;;;;;;;;;5065552;28;20021;-84
2022/10/24 12:34:26;;;;;;;1.70;1.20;;;;;;;;;;5056265;28;20031;-82
2022/10/24 12:37:10;;;;;;;5.18;1.48;;;;;;;;;;5052116;28;20141;-82
2022/10/24 12:39:40;;;;;;;5.80;0.98;;;;;;;;;;5070035;28;20124;-83
2022/10/24 12:42:37;;;;;;;2.80;1.30;;;;;;;;;;5052629;28;20554;-83
2022/10/24 12:49:24;;;;;;;2.17;1.40;;;;;;;;;;5055694;28;20411;-82
2022/10/24 12:58:44;;;;;;;1.92;0.95;;;;;;;;;;5060002;28;20083;-83
2022/10/24 13:01:44;;;;;;;3.17;1.20;;;;;;;;;;5051473;28;20039;-82
2022/10/24 13:04:40;;;;;;;5.70;1.13;;;;;;;;;;5056842;28;20024;-82
2022/10/24 13:07:14;;;;;;;4.70;1.10;;;;;;;;;;5059426;28;20047;-82
2022/10/24 13:10:03;;;;;;;4.10;1.52;;;;;;;;;;5067295;28;20024;-83
2022/10/24 13:12:40;;;;;;;1.85;0.95;;;;;;;;;;5060184;28;21375;-80
2022/10/24 13:15:52;;;;;;;3.05;1.10;;;;;;;;;;5061504;28;20037;-81
2022/10/24 13:18:44;;;;;;;2.35;0.93;;;;;;;;;;5052949;23;20500;-81
2022/10/24 13:21:13;;;;;;;3.80;1.63;;;;;;;;;;5034048;28;20098;-79
2022/10/24 13:23:46;;;;;;;2.65;1.30;;;;;;;;;;5032689;28;20021;-83
2022/10/24 13:26:36;;;;;;;5.55;1.73;;;;;;;;;;5034136;28;20052;-82
2022/10/24 13:29:01;;;;;;;1.33;1.08;;;;;;;;;;5033982;28;20071;-82
2022/10/24 13:31:26;;;;;;;4.22;1.38;;;;;;;;;;5025857;28;20025;-81
2022/10/24 13:34:31;;;;;;;5.10;1.15;;;;;;;;;;5025199;28;20451;-81
2022/10/24 13:37:01;;;;;;;3.05;1.30;;;;;;;;;;5034662;28;20045;-82
2022/10/24 13:39:34;;;;;;;8.20;1.42;;;;;;;;;;5037205;28;20033;-82
2022/10/24 13:42:14;;;;;;;4.57;1.73;;;;;;;;;;5030360;28;20026;-81
2022/10/24 13:44:44;;;;;;;2.97;1.05;;;;;;;;;;5024038;28;20033;-83
2022/10/24 13:47:09;;;;;;;4.90;1.50;;;;;;;;;;5020307;28;20059;-82
2022/10/24 13:50:01;;;;;;;6.65;1.63;;;;;;;;;;5017733;28;20025;-82
2022/10/24 13:52:43;;;;;;;3.80;1.48;;;;;;;;;;5020223;28;20107;-82
2022/10/24 13:55:30;;;;;;;3.92;1.40;;;;;;;;;;5012351;28;20489;-81
2022/10/24 13:58:08;;;;;;;3.10;1.33;;;;;;;;;;5016492;28;20029;-82
2022/10/24 14:00:36;;;;;;;6.40;1.38;;;;;;;;;;5014786;28;20519;-82
2022/10/24 14:03:03;;;;;;;3.17;1.25;;;;;;;;;;5015607;28;20026;-82
2022/10/24 14:05:36;;;;;;;5.70;1.30;;;;;;;;;;5013252;28;20041;-82
2022/10/24 14:08:22;;;;;;;2.53;1.25;;;;;;;;;;5014202;28;20480;-82
2022/10/24 14:10:50;;;;;;;2.53;1.33;;;;;;;;;;5012333;28;20112;-82
2022/10/24 14:13:18;;;;;;;2.42;1.02;;;;;;;;;;5013696;28;20491;-81
2022/10/24 14:15:53;;;;;;;8.10;1.17;;;;;;;;;;5015335;28;20481;-82
2022/10/24 14:18:19;;;;;;;2.90;1.10;;;;;;;;;;5014277;28;20169;-82
2022/10/24 14:20:53;;;;;;;5.15;1.13;;;;;;;;;;5015907;28;20586;-81
2022/10/24 14:23:34;;;;;;;10.38;1.58;;;;;;;;;;5013804;28;20069;-82
2022/10/24 14:26:19;;;;;;;4.28;1.30;;;;;;;;;;5013774;28;20021;-82
2022/10/24 14:28:57;;;;;;;4.13;1.23;;;;;;;;;;5012864;28;20017;-81
2022/10/24 14:31:29;;;;;;;1.23;1.05;;;;;;;;;;5010160;28;20098;-81
2022/10/24 14:33:57;;;;;;;9.18;1.40;;;;;;;;;;5008945;28;20092;-82
2022/10/24 14:36:26;;;;;;;2.28;0.98;;;;;;;;;;5013440;28;20048;-81
2022/10/24 14:38:56;;;;;;;2.25;1.17;;;;;;;;;;5017551;28;20030;-81
2022/10/24 14:41:25;;;;;;;1.05;0.70;;;;;;;;;;5009248;28;20029;-81
2022/10/24 14:43:51;;;;;;;1.35;0.88;;;;;;;;;;5017801;28;20025;-81
2022/10/24 14:46:31;;;;;;;3.97;0.90;;;;;;;;;;5018880;28;20116;-81
2022/10/24 14:49:17;;;;;;;3.17;1.00;;;;;;;;;;5018381;28;20207;-81
2022/10/24 14:51:43;;;;;;;7.38;1.20;;;;;;;;;;5016139;28;20022;-82
2022/10/24 14:54:18;;;;;;;3.13;1.10;;;;;;;;;;5013727;28;20032;-82
2022/10/24 14:56:45;;;;;;;3.90;1.17;;;;;;;;;;5023140;28;20095;-82
2022/10/24 14:59:33;;;;;;;8.48;1.17;;;;;;;;;;5018795;28;20370;-81
2022/10/24 15:02:25;;;;;;;7.40;1.35;;;;;;;;;;5028898;28;20104;-81
2022/10/24 15:04:52;;;;;;;2.60;1.15;;;;;;;;;;5033250;28;20029;-82
2022/10/24 15:07:53;;;;;;;1.10;1.00;;;;;;;;;;5026945;28;20072;-82
2022/10/24 15:10:27;;;;;;;2.13;1.08;;;;;;;;;;4996980;28;20658;-81
2022/10/24 15:12:58;;;;;;;2.45;1.20;;;;;;;;;;5034851;28;20461;-82
2022/10/24 15:15:31;;;;;;;2.25;1.20;;;;;;;;;;5032390;28;20487;-82
2022/10/24 15:18:39;;;;;;;2.47;1.10;;;;;;;;;;5021340;28;20045;-83
2022/10/24 15:21:19;;;;;;;4.75;1.17;;;;;;;;;;5032240;28;20021;-81
2022/10/24 15:23:59;;;;;;;3.05;1.10;;;;;;;;;;5032006;28;20025;-81